createdAt,value
2018-10-09T00:01:08.878Z,12.02
2018-10-09T00:03:36.416Z,12.06
2018-10-09T00:06:03.978Z,11.93
2018-10-09T00:08:31.504Z,11.92
2018-10-09T00:10:59.059Z,11.80
2018-10-09T00:13:26.621Z,11.81
2018-10-09T00:15:54.206Z,11.78
2018-10-09T00:18:21.748Z,11.87
2018-10-09T00:20:49.265Z,11.85
2018-10-09T00:23:16.823Z,11.79
2018-10-09T00:25:44.346Z,11.65
2018-10-09T00:28:11.939Z,11.69
2018-10-09T00:30:39.783Z,11.70
2018-10-09T00:33:07.327Z,11.56
2018-10-09T00:35:34.890Z,11.41
2018-10-09T00:38:02.441Z,11.44
2018-10-09T00:40:30.002Z,11.52
2018-10-09T00:42:57.554Z,11.72
2018-10-09T00:45:25.062Z,11.78
2018-10-09T00:47:52.650Z,11.69
2018-10-09T00:50:20.190Z,11.63
2018-10-09T00:52:47.694Z,11.55
2018-10-09T00:55:15.254Z,11.55
2018-10-09T00:57:42.797Z,11.41
2018-10-09T01:00:10.386Z,11.56
2018-10-09T01:02:37.973Z,11.42
2018-10-09T01:05:05.584Z,11.50
2018-10-09T01:07:33.101Z,11.33
2018-10-09T01:10:00.910Z,11.23
2018-10-09T01:12:28.447Z,11.30
2018-10-09T01:14:55.973Z,11.43
2018-10-09T01:17:23.539Z,11.30
2018-10-09T01:19:51.074Z,11.17
2018-10-09T01:22:18.612Z,11.10
2018-10-09T01:24:46.135Z,11.22
2018-10-09T01:27:13.674Z,11.33
2018-10-09T01:29:41.195Z,11.19
2018-10-09T01:32:08.721Z,11.22
2018-10-09T01:34:36.294Z,11.09
2018-10-09T01:37:03.809Z,11.04
2018-10-09T01:39:31.389Z,11.05
2018-10-09T01:41:58.891Z,11.13
2018-10-09T01:44:26.449Z,11.34
2018-10-09T01:46:53.980Z,11.45
2018-10-09T01:49:21.505Z,11.48
2018-10-09T01:51:49.034Z,11.18
2018-10-09T01:54:16.542Z,11.27
2018-10-09T01:56:44.087Z,11.22
2018-10-09T01:59:11.642Z,11.21
2018-10-09T02:01:39.170Z,11.15
2018-10-09T02:04:06.942Z,11.20
2018-10-09T02:06:34.462Z,11.29
2018-10-09T02:09:02.078Z,11.21
2018-10-09T02:11:29.602Z,11.13
2018-10-09T02:13:57.143Z,10.94
2018-10-09T02:16:24.662Z,11.06
2018-10-09T02:18:52.490Z,10.93
2018-10-09T02:21:20.014Z,10.77
2018-10-09T02:23:47.561Z,10.77
2018-10-09T02:26:15.370Z,10.85
2018-10-09T02:28:42.913Z,10.72
2018-10-09T02:31:10.471Z,10.78
2018-10-09T02:33:38.091Z,10.68
2018-10-09T02:36:05.863Z,10.59
2018-10-09T02:38:33.643Z,10.64
2018-10-09T02:41:01.178Z,10.50
2018-10-09T02:43:28.724Z,10.50
2018-10-09T02:45:56.273Z,10.44
2018-10-09T02:48:23.819Z,10.40
2018-10-09T02:50:51.346Z,10.35
2018-10-09T02:53:18.862Z,10.28
2018-10-09T02:55:46.405Z,10.52
2018-10-09T02:58:13.902Z,10.57
2018-10-09T03:00:41.447Z,10.64
2018-10-09T03:03:09.025Z,10.45
2018-10-09T03:05:36.570Z,10.71
2018-10-09T03:08:04.130Z,10.70
2018-10-09T03:10:31.938Z,10.68
2018-10-09T03:12:59.455Z,10.64
2018-10-09T03:15:26.983Z,10.48
2018-10-09T03:17:54.550Z,10.35
2018-10-09T03:20:22.119Z,10.27
2018-10-09T03:22:49.658Z,10.20
2018-10-09T03:25:17.191Z,10.21
2018-10-09T03:27:44.744Z,10.23
2018-10-09T03:30:12.722Z,10.23
2018-10-09T03:32:40.250Z,10.40
2018-10-09T03:35:07.873Z,10.34
2018-10-09T03:37:35.834Z,10.38
2018-10-09T03:40:03.422Z,10.27
2018-10-09T03:42:30.934Z,10.26
2018-10-09T03:44:58.466Z,10.26
2018-10-09T03:47:26.022Z,10.22
2018-10-09T03:49:53.554Z,10.23
2018-10-09T03:52:21.113Z,10.16
2018-10-09T03:54:48.625Z,10.21
2018-10-09T03:57:16.137Z,10.20
2018-10-09T03:59:43.672Z,10.24
2018-10-09T04:02:11.699Z,10.25
2018-10-09T04:04:39.466Z,10.35
2018-10-09T04:07:07.605Z,10.37
2018-10-09T04:09:35.173Z,10.40
2018-10-09T04:12:02.744Z,10.45
2018-10-09T04:14:30.295Z,10.47
2018-10-09T04:16:57.826Z,10.50
2018-10-09T04:19:25.442Z,10.51
2018-10-09T04:21:52.922Z,10.57
2018-10-09T04:24:20.466Z,10.67
2018-10-09T04:26:47.997Z,10.64
2018-10-09T04:29:15.607Z,10.67
2018-10-09T04:31:43.163Z,10.67
2018-10-09T04:34:10.714Z,10.63
2018-10-09T04:36:38.266Z,10.63
2018-10-09T04:39:06.623Z,10.66
2018-10-09T04:41:34.150Z,10.67
2018-10-09T04:44:01.703Z,10.67
2018-10-09T04:46:29.259Z,10.73
2018-10-09T04:48:56.793Z,10.72
2018-10-09T04:51:24.654Z,10.86
2018-10-09T04:53:52.186Z,10.87
2018-10-09T04:56:19.710Z,10.84
2018-10-09T04:58:47.271Z,10.89
2018-10-09T05:01:14.798Z,10.86
2018-10-09T05:03:42.358Z,10.88
2018-10-09T05:06:10.167Z,10.90
2018-10-09T05:08:37.684Z,10.98
2018-10-09T05:11:05.244Z,11.01
2018-10-09T05:13:32.861Z,11.02
2018-10-09T05:16:00.425Z,11.04
2018-10-09T05:18:27.958Z,11.15
2018-10-09T05:20:55.534Z,11.22
2018-10-09T05:23:23.120Z,11.23
2018-10-09T05:25:50.678Z,11.27
2018-10-09T05:28:18.250Z,11.34
2018-10-09T05:30:45.790Z,11.27
2018-10-09T05:33:13.314Z,11.27
2018-10-09T05:35:40.838Z,11.33
2018-10-09T05:38:08.383Z,11.34
2018-10-09T05:40:35.974Z,11.38
2018-10-09T05:43:03.497Z,11.42
2018-10-09T05:45:34.790Z,11.43
2018-10-09T05:48:02.300Z,11.48
2018-10-09T05:50:29.864Z,11.47
2018-10-09T05:52:57.395Z,11.61
2018-10-09T05:55:24.910Z,11.89
2018-10-09T05:57:52.476Z,12.12
2018-10-09T06:00:20.039Z,12.26
2018-10-09T06:02:47.931Z,12.35
2018-10-09T06:05:15.466Z,12.39
2018-10-09T06:07:44.042Z,12.48
2018-10-09T06:10:11.595Z,12.51
2018-10-09T06:12:39.131Z,12.42
2018-10-09T06:15:06.733Z,12.33
2018-10-09T06:17:34.535Z,12.26
2018-10-09T06:20:02.061Z,12.27
2018-10-09T06:22:29.619Z,12.25
2018-10-09T06:24:57.408Z,12.22
2018-10-09T06:27:24.946Z,12.23
2018-10-09T06:29:52.520Z,12.22
2018-10-09T06:32:20.091Z,12.21
2018-10-09T06:34:47.648Z,12.27
2018-10-09T06:37:15.453Z,12.27
2018-10-09T06:39:42.968Z,12.38
2018-10-09T06:42:10.513Z,12.39
2018-10-09T06:44:38.094Z,12.38
2018-10-09T06:47:05.826Z,12.42
2018-10-09T06:49:33.354Z,12.47
2018-10-09T06:52:01.203Z,12.62
2018-10-09T06:54:28.827Z,12.94
2018-10-09T06:56:56.294Z,12.95
2018-10-09T06:59:23.842Z,12.88
2018-10-09T07:01:51.371Z,12.94
2018-10-09T07:04:18.910Z,12.99
2018-10-09T07:06:46.851Z,13.00
2018-10-09T07:09:14.533Z,13.07
2018-10-09T07:11:42.499Z,13.10
2018-10-09T07:14:09.922Z,13.13
2018-10-09T07:16:37.469Z,13.32
2018-10-09T07:19:05.214Z,13.35
2018-10-09T07:21:32.831Z,13.50
2018-10-09T07:24:00.767Z,13.60
2018-10-09T07:26:28.332Z,13.74
2018-10-09T07:28:55.882Z,13.82
2018-10-09T07:31:23.443Z,13.71
2018-10-09T07:33:50.998Z,13.94
2018-10-09T07:36:18.563Z,14.14
2018-10-09T07:38:46.098Z,14.15
2018-10-09T07:41:13.674Z,14.20
2018-10-09T07:43:41.222Z,14.31
2018-10-09T07:46:08.835Z,14.23
2018-10-09T07:48:36.367Z,14.35
2018-10-09T07:51:03.913Z,14.54
2018-10-09T07:53:31.475Z,14.51
2018-10-09T07:55:59.055Z,14.56
2018-10-09T07:58:26.632Z,14.67
2018-10-09T08:00:54.275Z,14.87
2018-10-09T08:03:21.790Z,14.95
2018-10-09T08:05:49.358Z,15.22
2018-10-09T08:08:17.121Z,15.12
2018-10-09T08:10:44.748Z,15.14
2018-10-09T08:13:12.239Z,15.31
2018-10-09T08:15:39.779Z,15.39
2018-10-09T08:18:07.309Z,15.37
2018-10-09T08:20:34.872Z,15.35
2018-10-09T08:23:02.713Z,15.25
2018-10-09T08:25:30.219Z,15.01
2018-10-09T08:27:57.802Z,15.10
2018-10-09T08:30:25.329Z,15.16
2018-10-09T08:32:52.876Z,15.25
2018-10-09T08:35:20.443Z,15.18
2018-10-09T08:37:48.000Z,15.24
2018-10-09T08:40:15.706Z,15.49
2018-10-09T08:42:43.178Z,15.57
2018-10-09T08:45:10.710Z,15.56
2018-10-09T08:47:38.290Z,15.62
2018-10-09T08:50:05.846Z,15.58
2018-10-09T08:52:33.400Z,15.71
2018-10-09T08:55:00.946Z,15.75
2018-10-09T08:57:28.563Z,15.82
2018-10-09T08:59:56.041Z,15.88
2018-10-09T09:02:23.723Z,16.06
2018-10-09T09:04:51.265Z,16.12
2018-10-09T09:07:18.810Z,16.18
2018-10-09T09:09:46.471Z,15.95
2018-10-09T09:12:13.947Z,16.15
2018-10-09T09:14:41.574Z,16.24
2018-10-09T09:17:09.114Z,16.28
2018-10-09T09:19:36.627Z,16.12
2018-10-09T09:22:04.506Z,16.20
2018-10-09T09:24:32.143Z,16.28
2018-10-09T09:26:59.744Z,16.28
2018-10-09T09:29:27.310Z,16.32
2018-10-09T09:31:54.867Z,16.56
2018-10-09T09:34:22.414Z,16.35
2018-10-09T09:36:50.069Z,16.41
2018-10-09T09:39:17.566Z,16.26
2018-10-09T09:41:45.101Z,16.21
2018-10-09T09:44:13.082Z,16.27
2018-10-09T09:46:40.633Z,16.39
2018-10-09T09:49:08.154Z,16.51
2018-10-09T09:51:35.730Z,16.46
2018-10-09T09:54:03.334Z,16.48
2018-10-09T09:56:31.179Z,16.47
2018-10-09T09:58:59.000Z,16.61
2018-10-09T10:01:32.087Z,16.54
2018-10-09T10:03:59.611Z,16.60
2018-10-09T10:06:27.139Z,16.79
2018-10-09T10:08:54.698Z,17.03
2018-10-09T10:11:22.219Z,16.97
2018-10-09T10:13:50.148Z,17.07
2018-10-09T10:16:17.762Z,16.97
2018-10-09T10:18:45.286Z,16.85
2018-10-09T10:21:13.184Z,16.94
2018-10-09T10:23:40.692Z,17.10
2018-10-09T10:26:08.267Z,17.34
2018-10-09T10:28:35.851Z,17.46
2018-10-09T10:31:03.419Z,17.56
2018-10-09T10:33:30.970Z,17.93
2018-10-09T10:35:58.498Z,18.18
2018-10-09T10:38:26.058Z,18.45
2018-10-09T10:40:54.012Z,18.74
2018-10-09T10:43:21.551Z,18.91
2018-10-09T10:45:49.074Z,19.11
2018-10-09T10:48:16.642Z,19.13
2018-10-09T10:50:44.150Z,19.13
2018-10-09T10:53:11.686Z,19.85
2018-10-09T10:55:39.564Z,20.59
2018-10-09T10:58:07.395Z,21.05
2018-10-09T11:00:34.994Z,20.75
2018-10-09T11:03:02.754Z,20.04
2018-10-09T11:05:30.285Z,20.11
2018-10-09T11:07:57.860Z,20.31
2018-10-09T11:10:25.433Z,20.23
2018-10-09T11:12:53.047Z,20.29
2018-10-09T11:15:20.955Z,20.18
2018-10-09T11:17:48.541Z,19.70
2018-10-09T11:20:16.569Z,19.74
2018-10-09T11:22:44.141Z,19.66
2018-10-09T11:25:12.345Z,19.70
2018-10-09T11:27:39.882Z,19.55
2018-10-09T11:30:07.474Z,19.65
2018-10-09T11:32:35.488Z,19.64
2018-10-09T11:35:02.970Z,19.46
2018-10-09T11:37:30.517Z,19.64
2018-10-09T11:39:58.130Z,19.48
2018-10-09T11:42:25.671Z,19.49
2018-10-09T11:44:53.215Z,19.51
2018-10-09T11:47:21.070Z,19.43
2018-10-09T11:49:48.609Z,19.38
2018-10-09T11:52:16.185Z,19.28
2018-10-09T11:54:43.744Z,19.24
2018-10-09T11:57:11.261Z,19.19
2018-10-09T11:59:38.780Z,19.20
2018-10-09T12:02:06.375Z,19.01
2018-10-09T12:04:33.999Z,19.17
2018-10-09T12:07:01.530Z,19.24
2018-10-09T12:09:29.099Z,19.30
2018-10-09T12:11:56.640Z,19.35
2018-10-09T12:14:24.179Z,19.57
2018-10-09T12:16:51.768Z,19.55
2018-10-09T12:19:19.300Z,19.41
2018-10-09T12:21:46.892Z,19.27
2018-10-09T12:24:14.439Z,19.19
2018-10-09T12:26:41.988Z,19.36
2018-10-09T12:29:09.559Z,19.23
2018-10-09T12:31:37.106Z,19.20
2018-10-09T12:34:05.200Z,19.28
2018-10-09T12:36:33.065Z,19.26
2018-10-09T12:39:00.635Z,19.26
2018-10-09T12:41:28.202Z,19.18
2018-10-09T12:43:55.842Z,19.30
2018-10-09T12:46:23.338Z,19.41
2018-10-09T12:48:50.913Z,19.40
2018-10-09T12:51:18.448Z,19.31
2018-10-09T12:53:46.003Z,19.42
2018-10-09T12:56:13.518Z,19.31
2018-10-09T12:58:41.121Z,19.29
2018-10-09T13:01:08.610Z,19.52
2018-10-09T13:03:36.174Z,19.77
2018-10-09T13:06:03.790Z,19.64
2018-10-09T13:08:31.315Z,19.52
2018-10-09T13:10:58.876Z,19.43
2018-10-09T13:13:26.412Z,19.54
2018-10-09T13:15:54.974Z,19.35
2018-10-09T13:18:22.505Z,19.32
2018-10-09T13:20:50.122Z,19.36
2018-10-09T13:23:17.680Z,19.30
2018-10-09T13:25:45.210Z,19.19
2018-10-09T13:28:12.761Z,19.27
2018-10-09T13:30:40.309Z,19.31
2018-10-09T13:33:08.172Z,19.45
2018-10-09T13:35:35.757Z,19.35
2018-10-09T13:38:03.332Z,19.22
2018-10-09T13:40:31.154Z,19.39
2018-10-09T13:42:58.714Z,19.38
2018-10-09T13:45:26.254Z,19.30
2018-10-09T13:47:53.807Z,19.20
2018-10-09T13:50:21.386Z,19.23
2018-10-09T13:52:48.887Z,19.21
2018-10-09T13:55:16.591Z,19.29
2018-10-09T13:57:44.050Z,19.29
2018-10-09T14:00:11.678Z,19.35
2018-10-09T14:02:39.256Z,19.33
2018-10-09T14:05:06.910Z,19.38
2018-10-09T14:07:34.487Z,19.44
2018-10-09T14:10:03.730Z,19.55
2018-10-09T14:12:31.270Z,19.46
2018-10-09T14:14:58.835Z,19.37
2018-10-09T14:17:26.385Z,19.51
2018-10-09T14:19:53.935Z,19.47
2018-10-09T14:22:21.560Z,19.54
2018-10-09T14:24:49.030Z,19.46
2018-10-09T14:27:16.580Z,19.44
2018-10-09T14:29:44.147Z,19.46
2018-10-09T14:32:11.677Z,19.43
2018-10-09T14:34:40.105Z,19.43
2018-10-09T14:37:07.662Z,19.46
2018-10-09T14:39:35.187Z,19.51
2018-10-09T14:42:02.785Z,19.58
2018-10-09T14:44:30.330Z,19.63
2018-10-09T14:46:57.882Z,19.65
2018-10-09T14:49:25.471Z,19.69
2018-10-09T14:51:53.306Z,19.72
2018-10-09T14:54:20.834Z,19.69
2018-10-09T14:56:48.413Z,19.65
2018-10-09T14:59:16.210Z,19.70
2018-10-09T15:01:43.745Z,19.81
2018-10-09T15:04:11.317Z,19.80
2018-10-09T15:06:38.944Z,19.74
2018-10-09T15:09:07.934Z,19.77
2018-10-09T15:11:35.527Z,19.67
2018-10-09T15:14:03.106Z,19.66
2018-10-09T15:16:30.673Z,19.75
2018-10-09T15:18:58.251Z,19.85
2018-10-09T15:21:25.794Z,19.67
2018-10-09T15:23:53.348Z,19.64
2018-10-09T15:26:20.902Z,19.64
2018-10-09T15:28:48.458Z,19.58
2018-10-09T15:31:16.006Z,19.46
2018-10-09T15:33:43.880Z,19.49
2018-10-09T15:36:11.426Z,19.44
2018-10-09T15:38:38.977Z,19.40
2018-10-09T15:41:06.930Z,19.40
2018-10-09T15:43:34.516Z,19.40
2018-10-09T15:46:02.107Z,19.22
2018-10-09T15:48:29.646Z,19.29
2018-10-09T15:50:57.233Z,19.21
2018-10-09T15:53:24.819Z,19.21
2018-10-09T15:55:52.380Z,19.27
2018-10-09T15:58:20.027Z,19.25
2018-10-09T16:00:47.530Z,19.18
2018-10-09T16:03:15.102Z,19.16
2018-10-09T16:05:42.686Z,19.17
2018-10-09T16:08:10.247Z,19.19
2018-10-09T16:10:37.783Z,19.13
2018-10-09T16:13:05.400Z,18.98
2018-10-09T16:15:32.999Z,18.70
2018-10-09T16:18:00.578Z,18.80
2018-10-09T16:20:28.263Z,18.85
2018-10-09T16:22:55.807Z,18.86
2018-10-09T16:25:23.393Z,18.84
2018-10-09T16:27:50.967Z,18.75
2018-10-09T16:30:18.557Z,18.74
2018-10-09T16:32:46.501Z,18.61
2018-10-09T16:35:13.889Z,18.46
2018-10-09T16:37:41.531Z,18.28
2018-10-09T16:40:09.417Z,18.33
2018-10-09T16:42:36.990Z,18.33
2018-10-09T16:45:04.599Z,18.22
2018-10-09T16:47:32.248Z,18.08
2018-10-09T16:49:59.767Z,17.86
2018-10-09T16:52:27.356Z,17.71
2018-10-09T16:54:54.911Z,17.63
2018-10-09T16:57:22.576Z,17.50
2018-10-09T16:59:50.155Z,17.51
2018-10-09T17:02:17.984Z,17.43
2018-10-09T17:04:45.535Z,17.44
2018-10-09T17:07:13.180Z,17.39
2018-10-09T17:09:40.801Z,17.36
2018-10-09T17:12:08.339Z,17.06
2018-10-09T17:14:35.939Z,16.90
2018-10-09T17:17:03.516Z,16.93
2018-10-09T17:19:31.087Z,16.83
2018-10-09T17:21:58.640Z,16.79
2018-10-09T17:24:26.185Z,16.62
2018-10-09T17:26:53.820Z,16.72
2018-10-09T17:29:21.339Z,16.76
2018-10-09T17:31:48.902Z,16.65
2018-10-09T17:34:16.500Z,16.57
2018-10-09T17:36:44.089Z,16.46
2018-10-09T17:39:12.176Z,16.37
2018-10-09T17:41:40.073Z,16.32
2018-10-09T17:44:08.099Z,16.19
2018-10-09T17:46:35.812Z,16.05
2018-10-09T17:49:03.338Z,15.88
2018-10-09T17:51:30.877Z,15.82
2018-10-09T17:53:58.459Z,15.74
2018-10-09T17:56:26.046Z,15.61
2018-10-09T17:58:53.588Z,15.56
2018-10-09T18:01:21.204Z,15.54
2018-10-09T18:03:48.768Z,15.52
2018-10-09T18:06:16.367Z,15.45
2018-10-09T18:08:43.937Z,15.37
2018-10-09T18:11:11.645Z,15.43
2018-10-09T18:13:39.255Z,15.30
2018-10-09T18:16:07.070Z,15.23
2018-10-09T18:18:34.759Z,15.06
2018-10-09T18:21:02.331Z,15.10
2018-10-09T18:23:29.940Z,15.01
2018-10-09T18:25:57.794Z,14.94
2018-10-09T18:28:25.354Z,14.94
2018-10-09T18:30:52.994Z,14.90
2018-10-09T18:33:20.715Z,14.86
2018-10-09T18:35:48.194Z,14.77
2018-10-09T18:38:15.794Z,14.69
2018-10-09T18:40:43.526Z,14.66
2018-10-09T18:43:10.958Z,14.66
2018-10-09T18:45:38.929Z,14.65
2018-10-09T18:48:06.504Z,14.66
2018-10-09T18:50:34.059Z,14.57
2018-10-09T18:53:01.657Z,14.51
2018-10-09T18:55:29.232Z,14.44
2018-10-09T18:57:56.811Z,14.38
2018-10-09T19:00:24.395Z,14.35
2018-10-09T19:02:52.016Z,14.35
2018-10-09T19:05:19.587Z,14.28
2018-10-09T19:07:47.155Z,14.33
2018-10-09T19:10:14.750Z,14.28
2018-10-09T19:12:42.352Z,14.20
2018-10-09T19:15:09.946Z,14.22
2018-10-09T19:17:37.516Z,14.05
2018-10-09T19:20:05.244Z,14.13
2018-10-09T19:22:32.793Z,14.07
2018-10-09T19:25:00.425Z,14.02
2018-10-09T19:27:28.044Z,13.97
2018-10-09T19:29:55.656Z,13.99
2018-10-09T19:32:23.615Z,13.97
2018-10-09T19:34:57.721Z,13.90
2018-10-09T19:37:25.279Z,13.83
2018-10-09T19:39:52.851Z,13.74
2018-10-09T19:42:20.432Z,13.58
2018-10-09T19:44:48.018Z,13.49
2018-10-09T19:47:15.598Z,13.45
2018-10-09T19:49:43.139Z,13.40
2018-10-09T19:52:10.747Z,13.35
2018-10-09T19:54:38.566Z,13.41
2018-10-09T19:57:06.128Z,13.41
2018-10-09T19:59:33.699Z,13.36
2018-10-09T20:02:01.295Z,13.25
2018-10-09T20:04:28.852Z,13.09
2018-10-09T20:06:56.446Z,13.09
2018-10-09T20:09:24.003Z,13.04
2018-10-09T20:11:51.615Z,12.92
2018-10-09T20:14:19.273Z,12.88
2018-10-09T20:16:46.860Z,12.95
2018-10-09T20:19:14.415Z,12.90
2018-10-09T20:21:42.040Z,12.86
2018-10-09T20:24:09.647Z,12.82
2018-10-09T20:26:37.207Z,12.82
2018-10-09T20:29:04.802Z,12.74
2018-10-09T20:31:32.387Z,12.71
2018-10-09T20:33:59.986Z,12.67
2018-10-09T20:36:27.519Z,12.68
2018-10-09T20:38:55.150Z,12.70
2018-10-09T20:41:22.711Z,12.63
2018-10-09T20:43:50.565Z,12.59
2018-10-09T20:46:18.184Z,12.60
2018-10-09T20:48:45.750Z,12.60
2018-10-09T20:51:13.508Z,12.63
2018-10-09T20:53:41.092Z,12.60
2018-10-09T20:56:08.659Z,12.61
2018-10-09T20:58:36.263Z,12.54
2018-10-09T21:01:03.809Z,12.51
2018-10-09T21:03:31.379Z,12.45
2018-10-09T21:05:59.042Z,12.44
2018-10-09T21:08:26.531Z,12.46
2018-10-09T21:10:54.091Z,12.47
2018-10-09T21:13:21.668Z,12.46
2018-10-09T21:15:49.291Z,12.46
2018-10-09T21:18:16.827Z,12.39
2018-10-09T21:20:44.414Z,12.45
2018-10-09T21:23:11.975Z,12.39
2018-10-09T21:25:39.535Z,12.45
2018-10-09T21:28:07.262Z,12.39
2018-10-09T21:30:34.815Z,12.36
2018-10-09T21:33:02.756Z,12.33
2018-10-09T21:35:30.301Z,12.29
2018-10-09T21:37:57.838Z,12.31
2018-10-09T21:40:25.443Z,12.31
2018-10-09T21:42:52.988Z,12.29
2018-10-09T21:45:20.859Z,12.28
2018-10-09T21:47:54.110Z,12.29
2018-10-09T21:50:21.735Z,12.28
2018-10-09T21:52:49.262Z,12.21
2018-10-09T21:55:16.806Z,12.21
2018-10-09T21:57:44.398Z,12.19
2018-10-09T22:00:11.998Z,12.15
2018-10-09T22:02:40.759Z,12.16
2018-10-09T22:05:08.782Z,12.14
2018-10-09T22:07:36.389Z,12.12
2018-10-09T22:10:04.087Z,12.10
2018-10-09T22:12:31.641Z,12.11
2018-10-09T22:14:59.197Z,12.11
2018-10-09T22:17:27.449Z,12.13
2018-10-09T22:19:55.010Z,12.13
2018-10-09T22:22:22.819Z,12.12
2018-10-09T22:24:50.448Z,12.08
2018-10-09T22:27:18.195Z,12.11
2018-10-09T22:29:45.759Z,12.15
2018-10-09T22:32:13.346Z,12.12
2018-10-09T22:34:40.902Z,12.17
2018-10-09T22:37:08.736Z,12.19
2018-10-09T22:39:36.323Z,12.19
2018-10-09T22:42:03.875Z,12.10
2018-10-09T22:44:31.401Z,12.20
2018-10-09T22:46:58.924Z,12.22
2018-10-09T22:49:26.830Z,12.23
2018-10-09T22:51:54.349Z,12.19
2018-10-09T22:54:21.895Z,12.21
2018-10-09T22:56:49.438Z,12.28
2018-10-09T22:59:18.138Z,12.25
2018-10-09T23:01:45.672Z,12.25
2018-10-09T23:06:46.623Z,12.22
2018-10-09T23:09:14.118Z,12.23
2018-10-09T23:11:41.666Z,12.23
2018-10-09T23:14:09.191Z,12.24
2018-10-09T23:16:37.308Z,12.27
2018-10-09T23:19:05.033Z,12.30
2018-10-09T23:21:32.512Z,12.27
2018-10-09T23:24:00.071Z,12.27
2018-10-09T23:26:27.626Z,12.36
2018-10-09T23:28:55.158Z,12.41
2018-10-09T23:31:22.710Z,12.41
2018-10-09T23:33:50.558Z,12.52
2018-10-09T23:36:18.097Z,12.44
2018-10-09T23:38:45.614Z,12.47
2018-10-09T23:41:13.141Z,12.40
2018-10-09T23:43:40.674Z,12.51
2018-10-09T23:46:08.271Z,12.60
2018-10-09T23:48:35.822Z,12.66
2018-10-09T23:51:03.374Z,12.62
2018-10-09T23:53:30.873Z,12.63
2018-10-09T23:55:58.595Z,12.54
2018-10-09T23:58:26.172Z,12.56
